• Join FlightAware (Why Join?)
  • Login
  • US Flag 
10:36AM EST


 

Airport Tracker/Info


-or-


 

Live Flight TrackerFlight Track Log ✈ SKW6472 ✈ 20-May-2013 ✈ KLAX - KABQ

Flight Track Log - Related Links

Times and Time Zones

All times are in EDT time to prevent confusion due to time zone crossing. See the SKW6472 flight status page for this flight to view local times or setup timezone preferences in your user account.

Time Position Orientation Groundspeed Altitude Reporting Facility
EDT Latitude Longitude Course Direction KTS MPH feet Rate Location/Type
11:09AM 33.9289 -118.4511 90° East 201 231 2,600  Level Los Angeles Center
11:10AM 33.8856 -118.5208 233° Southwest 260 299 5,300 2,580 Climbing Los Angeles Center
11:11AM 33.6715 -118.4455 101° East  Level FlightAware Approximate
11:11AM 33.7972 -118.5372 189° South 284 327 8,500  Level Los Angeles Center
11:12AM 33.6334 -118.2895 90° East  Level FlightAware Approximate
11:12AM 33.7122 -118.5203 171° South 313 360 10,900  Level Los Angeles Center
11:13AM 33.6333 -118.1237 90° East  Level FlightAware Approximate
11:13AM 33.6617 -118.4131 120° Southeast 317 365 13,200  Level Los Angeles Center
11:14AM 33.6333 -117.9579 90° East  Level FlightAware Approximate
11:14AM 33.6428 -118.3094 102° East 325 374 15,400  Level Los Angeles Center
11:15AM 33.6439 -118.1972 89° East 340 391 17,700 2,040 Climbing Los Angeles Center
11:16AM 33.6439 -118.0792 90° East 349 402 19,700 2,220 Climbing Los Angeles Center
11:17AM 33.6442 -117.9294 90° East 368 423 22,300 1,560 Climbing Los Angeles Center
11:18AM 33.6444 -117.7975 90° East 391 450 23,000 780 Climbing Los Angeles Center
11:19AM 33.6444 -117.6564 90° East 416 479 24,000 1,320 Climbing Los Angeles Center
11:20AM 33.6436 -117.5103 90° East 435 501 25,800 1,800 Climbing Los Angeles Center
11:21AM 33.6431 -117.3639 90° East 440 506 27,800 1,920 Climbing Los Angeles Center
11:22AM 33.6439 -117.1894 90° East 438 504 29,800 1,680 Climbing Los Angeles Center
11:23AM 33.6414 -117.0419 91° East 441 507 31,300 1,260 Climbing Los Angeles Center
11:24AM 33.6397 -116.8942 91° East 444 511 32,500 1,140 Climbing Los Angeles Center
11:25AM 33.6381 -116.7325 91° East 457 526 33,700 1,080 Climbing Los Angeles Center
11:26AM 33.6353 -116.5767 91° East 463 533 34,800 1,080 Climbing Los Angeles Center
11:27AM 33.6325 -116.4203 91° East 467 537 36,000 1,140 Climbing Los Angeles Center
11:28AM 33.6300 -116.2642 91° East 467 537 37,200 900 Climbing Los Angeles Center
11:29AM 33.6453 -116.1111 83° East 465 535 37,900 660 Climbing Los Angeles Center
11:30AM 33.6978 -115.9419 70° East 452 520 38,600 480 Climbing Los Angeles Center
11:31AM 33.7442 -115.8000 69° East 457 526 39,000 180 Climbing Los Angeles Center
11:33AM 33.7633 -115.6428 82° East 471 542 39,000  Level Los Angeles Center
11:34AM 33.7822 -115.4892 82° East 468 539 39,000  Level Los Angeles Center
11:35AM 33.8017 -115.3369 81° East 462 532 39,000  Level Los Angeles Center
11:36AM 33.8206 -115.1850 81° East 461 531 39,000  Level Los Angeles Center
11:37AM 33.8447 -115.0036 81° East 459 528 39,000  Level Los Angeles Center
11:38AM 33.8628 -114.8508 82° East 461 531 39,000  Level Los Angeles Center
11:39AM 33.8822 -114.6989 81° East 461 531 39,000  Level Los Angeles Center
11:40AM 33.9003 -114.5453 82° East 463 533 39,000  Level Los Angeles Center
11:41AM 33.9194 -114.3922 81° East 462 532 39,000  Level Los Angeles Center
11:42AM 33.9375 -114.2400 82° East 460 529 39,000  Level Los Angeles Center
11:43AM 33.9589 -114.0558 82° East 464 534 39,000  Level Los Angeles Center
11:44AM 33.9747 -113.8997 83° East 470 541 39,000  Level Los Angeles Center
11:45AM 33.9828 -113.7917 85° East 465 535 39,000  Level Albuquerque Center
11:46AM 34.0017 -113.6372 82° East 464 534 39,000  Level Albuquerque Center
11:47AM 34.0192 -113.4831 82° East 466 536 39,000  Level Albuquerque Center
11:48AM 34.0367 -113.3272 82° East 468 539 39,000  Level Albuquerque Center
11:49AM 34.0544 -113.1722 82° East 468 539 39,000  Level Albuquerque Center
11:50AM 34.0717 -113.0161 82° East 469 540 39,000  Level Albuquerque Center
11:51AM 34.0897 -112.8589 82° East 471 542 39,000  Level Albuquerque Center
11:52AM 34.1086 -112.6694 83° East 474 545 39,000  Level Albuquerque Center
11:53AM 34.1267 -112.5081 82° East 483 556 39,000  Level Albuquerque Center
11:54AM 34.1431 -112.3456 83° East 486 559 39,000  Level Albuquerque Center
11:55AM 34.1592 -112.1822 83° East 488 562 39,000  Level Albuquerque Center
11:56AM 34.1772 -112.0014 83° East 486 559 39,000  Level Albuquerque Center
11:57AM 34.1933 -111.8408 83° East 484 557 39,000  Level Albuquerque Center
11:58AM 34.2100 -111.6703 83° East 479 551 39,000  Level Albuquerque Center
11:59AM 34.2222 -111.5331 84° East 480 552 39,000  Level Albuquerque Center
12:00PM 34.2408 -111.3394 83° East 481 554 39,000  Level Albuquerque Center
12:01PM 34.2553 -111.1764 84° East 486 559 39,000  Level Albuquerque Center
12:02PM 34.2706 -111.0119 84° East 490 564 39,000  Level Albuquerque Center
12:03PM 34.2853 -110.8483 84° East 491 565 39,000  Level Albuquerque Center
12:04PM 34.3006 -110.6819 84° East 496 571 39,000  Level Albuquerque Center
12:05PM 34.3156 -110.5181 84° East 493 567 39,000  Level Albuquerque Center
12:06PM 34.3303 -110.3272 85° East 493 567 39,000  Level Albuquerque Center
12:07PM 34.3436 -110.1711 84° East 490 564 39,000  Level Albuquerque Center
12:08PM 34.3586 -109.9894 84° East 488 562 39,000  Level Albuquerque Center
12:09PM 34.3714 -109.8344 84° East 486 559 39,000  Level Albuquerque Center
12:10PM 34.3856 -109.6536 85° East 485 558 39,000  Level Albuquerque Center
12:11PM 34.3986 -109.5008 84° East 481 554 39,000 -180 Level Albuquerque Center
12:12PM 34.4114 -109.3225 85° East 479 551 38,700 -660 Descending Albuquerque Center
12:13PM 34.4286 -109.1678 82° East 484 557 37,700 -1,020 Descending Albuquerque Center
12:15PM 34.4694 -108.9906 74° East 490 564 36,600 -840 Descending Albuquerque Center
12:16PM 34.5047 -108.8375 74° East 492 566 36,000 -300 Descending Albuquerque Center
12:17PM 34.5458 -108.6581 74° East 494 568 36,000 -300 Level Albuquerque Center
12:18PM 34.5797 -108.5047 75° East 493 567 35,500 -1,500 Descending Albuquerque Center
12:19PM 34.6169 -108.3372 75° East 504 580 33,000 -2,520 Descending Albuquerque Center
12:20PM 34.6539 -108.1758 74° East 501 577 30,300 -2,580 Descending Albuquerque Center
12:21PM 34.6889 -108.0156 75° East 495 570 27,700 -2,460 Descending Albuquerque Center
12:22PM 34.7231 -107.8606 75° East 481 554 25,300 -2,520 Descending Albuquerque Center
12:23PM 34.7622 -107.6814 75° East 462 532 22,500 -2,520 Descending Albuquerque Center
12:24PM 34.7925 -107.5389 75° East 444 511 20,200 -2,340 Descending Albuquerque Center
12:24PM 34.8092 -107.4617 75° East 411 473 18,900 -2,160 Descending Albuquerque Center
12:25PM 34.8217 -107.4086 74° East 413 475 18,000 -1,920 Descending Albuquerque Center
12:25PM 34.8356 -107.3414 76° East 360 414 17,000 -1,800 Descending Albuquerque Center
12:26PM 34.8464 -107.2947 74° East 362 417 16,200 -1,740 Descending Albuquerque Center
12:26PM 34.8689 -107.2350 65° Northeast 330 380 15,300 -1,500 Descending Albuquerque Center
12:27PM 34.8858 -107.1903 65° Northeast 344 396 14,700 -1,380 Descending Albuquerque Center
12:27PM 34.9039 -107.1278 71° East 336 387 13,900 -1,560 Descending Albuquerque Center
12:28PM 34.9108 -107.0600 83° East 339 390 13,100 -1,200 Descending Albuquerque Center
12:28PM 34.9156 -107.0214 82° East 316 364 12,700 -1,080 Descending Albuquerque Center
12:29PM 34.9222 -106.9600 82° East 320 368 12,000 -1,140 Descending Albuquerque Center
12:29PM 34.9275 -106.9175 81° East 284 327 11,600 -1,020 Descending Albuquerque Center
12:30PM 34.9331 -106.8689 82° East 296 341 11,000 -1,020 Descending Albuquerque Center
12:30PM 34.9394 -106.8264 80° East 264 304 10,600 -900 Descending Albuquerque Center
12:31PM 34.9428 -106.7817 85° East 276 318 10,100 -600 Descending Albuquerque Center
12:31PM 34.9481 -106.7414 81° East 257 296 10,000 -120 Descending Albuquerque Center
12:32PM 34.9522 -106.6958 84° East 266 306 10,000  Level Albuquerque Center
12:32PM 34.9547 -106.6567 86° East 251 289 10,000 -780 Level Albuquerque Center
12:33PM 34.9564 -106.5950 88° East 255 293 9,200 -1,140 Descending Albuquerque Center
12:33PM 34.9572 -106.5731 87° East 250 288 8,900 -1,260 Descending Albuquerque Center
12:34PM 34.9708 -106.5258 71° East 234 269 7,900 -1,320 Descending Albuquerque Center
12:34PM 34.9864 -106.5214 13° North 173 199 7,600 -1,200 Descending Albuquerque Center
12:35PM 35.0164 -106.5161 North 191 220 6,700 -1,020 Descending Albuquerque Center
12:35PM 35.0311 -106.5203 347° North 140 161 6,600 -420 Descending Albuquerque Center